Nearby METAR Reports

 

EGNM - Leeds And Bradford, United Kingdom
Distance from station: N 11mi, 18km
Updated: 06/12/2019 13:50
Partly cloudy
Partly cloudy
 Wind from WSW
Wind: WSW 20 mph , 31 km/h, Gust: 31 mph , 50 km/h
Temperature: 9°C
Wind Chill: 5°C
Dew Point: 7°C
Humidity: 87%
Barometer: 995 hPa
Clouds: Partly cloudy
Visibility: 6 miles , 10 km
Cloud details: Few Clouds 274 m
Partly cloudy 396 m
2019/12/06 13:50 EGNM 061350Z 24017G27KT 200V260 9999 FEW009 SCT013 09/07 Q0995
EGXU - Linton-On-Ouse, United Kingdom
Distance from station: NNE 28mi, 45km
Updated: 06/12/2019 14:00
Rain showers, Mostly cloudy
Rain showers, Mostly cloudy
 Wind from W
Wind: W 13 mph , 20 km/h
Temperature: 10°C
Wind Chill: 7°C
Dew Point: 8°C
Humidity: 88%
Barometer: 995 hPa
Summary: Rain Showers
Clouds: Mostly cloudy
Visibility: 2 miles , 4 km
Cloud details: Mostly cloudy 6096 m
2019/12/06 14:00 EGXU 061400Z 26011KT 4000 SHRA BKN2000 10/08 Q0995 RMK GRN
 
EGCN - Doncaster Sheffield, United Kingdom
Distance from station: ESE 30mi, 45km
Updated: 06/12/2019 13:50
Rain showers, Mostly cloudy
Rain showers, Mostly cloudy
 Wind from WSW
Wind: WSW 14 mph , 22 km/h
Temperature: 11°C
Dew Point: 9°C
Humidity: 88%
Barometer: 997 hPa
Summary: Rain Showers
Clouds: Mostly cloudy
Visibility: 6 miles , 10 km
Cloud details: Few Clouds 610 m
Mostly cloudy 762 m
2019/12/06 13:50 EGCN 061350Z 24012KT 9999 3000SW SHRA FEW020CB BKN025 11/09 Q0997
EGXZ - Topcliffe RAF, United Kingdom
Distance from station: NNE 36mi, 57km
Updated: 06/12/2019 13:50
Mostly cloudy
Mostly cloudy
 Wind from W
Wind: W 13 mph , 20 km/h
Temperature: 11°C
Dew Point: 7°C
Humidity: 77%
Barometer: 995 hPa
Clouds: Mostly cloudy
Visibility: 6 miles , 10 km
Cloud details: Few Clouds 732 m
Mostly cloudy 1250 m
2019/12/06 13:50 EGXZ 061350Z AUTO 26011KT 9999 FEW024/// BKN041/// 11/07 Q0995
 
EGCC - Manchester Intl, United Kingdom
Distance from station: SW 36mi, 58km
Updated: 06/12/2019 13:50
Light rain, Showers, Mostly cloudy
Light rain, Showers, Mostly cloudy
 Wind from WSW
Wind: WSW 14 mph , 22 km/h
Temperature: 10°C
Wind Chill: 7°C
Dew Point: 8°C
Humidity: 88%
Barometer: 997 hPa
Summary: Light rain, Showers
Clouds: Mostly cloudy
Visibility: 6 miles , 10 km
Cloud details: Partly cloudy 762 m
Mostly cloudy 1097 m
Mostly cloudy 1372 m
2019/12/06 13:50 EGCC 061350Z 24012KT 9999 -SHRA SCT025TCU BKN036 BKN045 10/08 Q0997 TEMPO SHRA
EGXE - Leeming RAF, United Kingdom
Distance from station: N 40mi, 65km
Updated: 06/12/2019 13:50
Mostly cloudy
Mostly cloudy
 Wind from WSW
Wind: WSW 9 mph , 15 km/h
Temperature: 10°C
Wind Chill: 8°C
Dew Point: 7°C
Humidity: 82%
Barometer: 994 hPa
Clouds: Mostly cloudy
Visibility: 6 miles , 10 km
Cloud details: Few Clouds 488 m
Mostly cloudy 701 m
2019/12/06 13:50 EGXE 061350Z 25008KT 9999 FEW016 BKN023 10/07 Q0994 TEMPO FEW020 RMK WHT TEMPO BLU